sensor_id;sensor_type;location;lat;lon;timestamp;P1;durP1;ratioP1;P2;durP2;ratioP2
1048;SDS011;513;51.444;7.196;2023-08-17T00:02:05;21.35;;;14.13;;
1048;SDS011;513;51.444;7.196;2023-08-17T00:04:31;20.17;;;13.57;;
1048;SDS011;513;51.444;7.196;2023-08-17T00:06:58;19.08;;;13.95;;
1048;SDS011;513;51.444;7.196;2023-08-17T00:09:25;25.08;;;16.38;;
1048;SDS011;513;51.444;7.196;2023-08-17T00:11:51;23.23;;;15.80;;
1048;SDS011;513;51.444;7.196;2023-08-17T00:14:18;21.60;;;15.45;;
1048;SDS011;513;51.444;7.196;2023-08-17T00:16:46;25.50;;;17.65;;
1048;SDS011;513;51.444;7.196;2023-08-17T00:19:13;22.38;;;14.93;;
1048;SDS011;513;51.444;7.196;2023-08-17T00:21:40;20.97;;;16.57;;
1048;SDS011;513;51.444;7.196;2023-08-17T00:24:07;28.23;;;18.87;;
1048;SDS011;513;51.444;7.196;2023-08-17T00:26:33;25.13;;;18.67;;
1048;SDS011;513;51.444;7.196;2023-08-17T00:29:00;24.80;;;18.25;;
1048;SDS011;513;51.444;7.196;2023-08-17T00:31:27;22.25;;;17.48;;
1048;SDS011;513;51.444;7.196;2023-08-17T00:33:55;22.08;;;16.42;;
1048;SDS011;513;51.444;7.196;2023-08-17T00:36:22;23.75;;;18.23;;
1048;SDS011;513;51.444;7.196;2023-08-17T00:38:49;23.80;;;17.63;;
1048;SDS011;513;51.444;7.196;2023-08-17T00:41:15;23.57;;;16.43;;
1048;SDS011;513;51.444;7.196;2023-08-17T00:43:42;22.05;;;17.08;;
1048;SDS011;513;51.444;7.196;2023-08-17T00:46:09;23.48;;;16.13;;
1048;SDS011;513;51.444;7.196;2023-08-17T00:48:36;24.65;;;17.05;;
1048;SDS011;513;51.444;7.196;2023-08-17T00:51:04;23.73;;;16.42;;
1048;SDS011;513;51.444;7.196;2023-08-17T00:53:31;22.50;;;16.40;;
1048;SDS011;513;51.444;7.196;2023-08-17T00:55:59;23.52;;;16.70;;
1048;SDS011;513;51.444;7.196;2023-08-17T00:58:27;20.42;;;15.02;;
1048;SDS011;513;51.444;7.196;2023-08-17T01:00:54;13.85;;;11.07;;
1048;SDS011;513;51.444;7.196;2023-08-17T01:03:21;14.27;;;10.85;;
1048;SDS011;513;51.444;7.196;2023-08-17T01:05:49;18.92;;;13.57;;
1048;SDS011;513;51.444;7.196;2023-08-17T01:08:16;15.82;;;12.65;;
1048;SDS011;513;51.444;7.196;2023-08-17T01:10:46;19.73;;;12.95;;
1048;SDS011;513;51.444;7.196;2023-08-17T01:13:21;15.80;;;11.35;;
1048;SDS011;513;51.444;7.196;2023-08-17T01:15:52;16.27;;;11.90;;
1048;SDS011;513;51.444;7.196;2023-08-17T01:18:24;18.17;;;12.80;;
1048;SDS011;513;51.444;7.196;2023-08-17T01:20:53;17.53;;;13.93;;
1048;SDS011;513;51.444;7.196;2023-08-17T01:23:21;16.40;;;13.07;;
1048;SDS011;513;51.444;7.196;2023-08-17T01:25:48;15.80;;;12.77;;
1048;SDS011;513;51.444;7.196;2023-08-17T01:28:15;18.50;;;12.95;;
1048;SDS011;513;51.444;7.196;2023-08-17T01:30:44;18.97;;;12.87;;
1048;SDS011;513;51.444;7.196;2023-08-17T01:33:17;16.80;;;11.80;;
1048;SDS011;513;51.444;7.196;2023-08-17T01:35:54;18.58;;;13.63;;
1048;SDS011;513;51.444;7.196;2023-08-17T01:38:29;21.20;;;14.95;;
1048;SDS011;513;51.444;7.196;2023-08-17T01:40:57;20.60;;;15.05;;
1048;SDS011;513;51.444;7.196;2023-08-17T01:43:26;25.27;;;16.52;;
1048;SDS011;513;51.444;7.196;2023-08-17T01:45:54;23.42;;;17.00;;
1048;SDS011;513;51.444;7.196;2023-08-17T01:48:21;20.90;;;17.65;;
1048;SDS011;513;51.444;7.196;2023-08-17T01:50:47;26.88;;;18.55;;
1048;SDS011;513;51.444;7.196;2023-08-17T01:53:14;28.50;;;19.48;;
1048;SDS011;513;51.444;7.196;2023-08-17T01:55:42;29.50;;;20.20;;
1048;SDS011;513;51.444;7.196;2023-08-17T01:58:08;26.98;;;20.25;;
1048;SDS011;513;51.444;7.196;2023-08-17T02:00:35;28.23;;;19.92;;
1048;SDS011;513;51.444;7.196;2023-08-17T02:03:02;31.27;;;20.17;;
1048;SDS011;513;51.444;7.196;2023-08-17T02:05:29;30.65;;;20.83;;
1048;SDS011;513;51.444;7.196;2023-08-17T02:07:55;33.00;;;21.20;;
1048;SDS011;513;51.444;7.196;2023-08-17T02:10:22;33.95;;;23.52;;
1048;SDS011;513;51.444;7.196;2023-08-17T02:12:50;36.22;;;24.17;;
1048;SDS011;513;51.444;7.196;2023-08-17T02:15:16;38.92;;;25.23;;
1048;SDS011;513;51.444;7.196;2023-08-17T02:17:43;38.75;;;25.40;;
1048;SDS011;513;51.444;7.196;2023-08-17T02:20:10;40.15;;;26.42;;
1048;SDS011;513;51.444;7.196;2023-08-17T02:22:39;34.03;;;23.38;;
1048;SDS011;513;51.444;7.196;2023-08-17T02:25:06;37.78;;;25.58;;
1048;SDS011;513;51.444;7.196;2023-08-17T02:27:33;42.25;;;26.80;;
1048;SDS011;513;51.444;7.196;2023-08-17T02:30:01;38.22;;;26.17;;
1048;SDS011;513;51.444;7.196;2023-08-17T02:32:28;38.72;;;26.77;;
1048;SDS011;513;51.444;7.196;2023-08-17T02:34:55;40.92;;;26.23;;
1048;SDS011;513;51.444;7.196;2023-08-17T02:37:21;34.58;;;23.40;;
1048;SDS011;513;51.444;7.196;2023-08-17T02:39:48;38.10;;;25.70;;
1048;SDS011;513;51.444;7.196;2023-08-17T02:42:15;38.53;;;25.57;;
1048;SDS011;513;51.444;7.196;2023-08-17T02:44:41;38.60;;;25.77;;
1048;SDS011;513;51.444;7.196;2023-08-17T02:47:09;38.57;;;25.90;;
1048;SDS011;513;51.444;7.196;2023-08-17T02:49:36;36.47;;;23.75;;
1048;SDS011;513;51.444;7.196;2023-08-17T02:52:03;27.85;;;21.00;;
1048;SDS011;513;51.444;7.196;2023-08-17T02:54:30;31.00;;;22.40;;
1048;SDS011;513;51.444;7.196;2023-08-17T02:56:56;31.58;;;21.20;;
1048;SDS011;513;51.444;7.196;2023-08-17T02:59:23;37.05;;;22.55;;
1048;SDS011;513;51.444;7.196;2023-08-17T03:01:50;35.17;;;22.73;;
1048;SDS011;513;51.444;7.196;2023-08-17T03:04:18;30.35;;;21.35;;
1048;SDS011;513;51.444;7.196;2023-08-17T03:06:44;35.38;;;21.55;;
1048;SDS011;513;51.444;7.196;2023-08-17T03:09:11;35.30;;;21.83;;
1048;SDS011;513;51.444;7.196;2023-08-17T03:11:38;30.65;;;21.17;;
1048;SDS011;513;51.444;7.196;2023-08-17T03:14:04;31.67;;;19.67;;
1048;SDS011;513;51.444;7.196;2023-08-17T03:16:31;26.00;;;17.90;;
1048;SDS011;513;51.444;7.196;2023-08-17T03:18:57;25.53;;;18.50;;
1048;SDS011;513;51.444;7.196;2023-08-17T03:21:27;26.43;;;18.00;;
1048;SDS011;513;51.444;7.196;2023-08-17T03:23:54;28.90;;;18.83;;
1048;SDS011;513;51.444;7.196;2023-08-17T03:26:21;26.15;;;18.52;;
1048;SDS011;513;51.444;7.196;2023-08-17T03:28:47;27.20;;;17.48;;
1048;SDS011;513;51.444;7.196;2023-08-17T03:31:14;27.92;;;18.33;;
1048;SDS011;513;51.444;7.196;2023-08-17T03:33:40;25.98;;;16.77;;
1048;SDS011;513;51.444;7.196;2023-08-17T03:36:07;25.17;;;18.08;;
1048;SDS011;513;51.444;7.196;2023-08-17T03:38:35;27.95;;;18.63;;
1048;SDS011;513;51.444;7.196;2023-08-17T03:41:04;29.37;;;19.73;;
1048;SDS011;513;51.444;7.196;2023-08-17T03:43:30;30.43;;;21.00;;
1048;SDS011;513;51.444;7.196;2023-08-17T03:45:57;32.87;;;21.40;;
1048;SDS011;513;51.444;7.196;2023-08-17T03:48:24;36.65;;;22.92;;
1048;SDS011;513;51.444;7.196;2023-08-17T03:50:51;42.15;;;24.58;;
1048;SDS011;513;51.444;7.196;2023-08-17T03:53:18;36.05;;;23.38;;
1048;SDS011;513;51.444;7.196;2023-08-17T03:55:46;37.83;;;23.13;;
1048;SDS011;513;51.444;7.196;2023-08-17T03:58:13;32.78;;;21.67;;
1048;SDS011;513;51.444;7.196;2023-08-17T04:00:40;33.75;;;22.65;;
1048;SDS011;513;51.444;7.196;2023-08-17T04:03:07;37.55;;;24.77;;
1048;SDS011;513;51.444;7.196;2023-08-17T04:05:34;38.55;;;24.73;;
1048;SDS011;513;51.444;7.196;2023-08-17T04:08:00;38.03;;;24.90;;
1048;SDS011;513;51.444;7.196;2023-08-17T04:10:27;41.72;;;25.45;;
1048;SDS011;513;51.444;7.196;2023-08-17T04:12:55;40.60;;;25.65;;
1048;SDS011;513;51.444;7.196;2023-08-17T04:15:22;39.20;;;25.90;;
1048;SDS011;513;51.444;7.196;2023-08-17T04:17:49;37.83;;;25.60;;
1048;SDS011;513;51.444;7.196;2023-08-17T04:20:16;38.28;;;25.85;;
1048;SDS011;513;51.444;7.196;2023-08-17T04:22:43;37.65;;;27.00;;
1048;SDS011;513;51.444;7.196;2023-08-17T04:25:10;41.20;;;25.88;;
1048;SDS011;513;51.444;7.196;2023-08-17T04:27:36;41.78;;;27.42;;
1048;SDS011;513;51.444;7.196;2023-08-17T04:30:05;45.35;;;28.02;;
1048;SDS011;513;51.444;7.196;2023-08-17T04:32:33;39.30;;;26.95;;
1048;SDS011;513;51.444;7.196;2023-08-17T04:34:59;39.50;;;27.52;;
1048;SDS011;513;51.444;7.196;2023-08-17T04:37:26;43.03;;;29.75;;
1048;SDS011;513;51.444;7.196;2023-08-17T04:39:53;47.28;;;31.25;;
1048;SDS011;513;51.444;7.196;2023-08-17T04:42:19;48.78;;;32.90;;
1048;SDS011;513;51.444;7.196;2023-08-17T04:44:46;44.35;;;31.17;;
1048;SDS011;513;51.444;7.196;2023-08-17T04:47:14;47.90;;;32.05;;
1048;SDS011;513;51.444;7.196;2023-08-17T04:49:41;45.50;;;30.48;;
1048;SDS011;513;51.444;7.196;2023-08-17T04:52:07;46.47;;;32.92;;
1048;SDS011;513;51.444;7.196;2023-08-17T04:54:34;46.33;;;32.10;;
1048;SDS011;513;51.444;7.196;2023-08-17T04:57:01;48.00;;;31.65;;
1048;SDS011;513;51.444;7.196;2023-08-17T04:59:30;51.00;;;33.05;;
1048;SDS011;513;51.444;7.196;2023-08-17T05:01:57;48.22;;;31.67;;
1048;SDS011;513;51.444;7.196;2023-08-17T05:04:25;43.22;;;29.40;;
1048;SDS011;513;51.444;7.196;2023-08-17T05:06:51;47.83;;;30.83;;
1048;SDS011;513;51.444;7.196;2023-08-17T05:09:18;49.10;;;31.40;;
1048;SDS011;513;51.444;7.196;2023-08-17T05:11:45;47.53;;;31.95;;
1048;SDS011;513;51.444;7.196;2023-08-17T05:14:12;46.13;;;31.30;;
1048;SDS011;513;51.444;7.196;2023-08-17T05:16:38;52.45;;;35.70;;
1048;SDS011;513;51.444;7.196;2023-08-17T05:19:05;50.15;;;33.47;;
1048;SDS011;513;51.444;7.196;2023-08-17T05:21:34;49.83;;;32.73;;
1048;SDS011;513;51.444;7.196;2023-08-17T05:24:01;43.38;;;31.33;;
1048;SDS011;513;51.444;7.196;2023-08-17T05:26:28;48.67;;;30.92;;
1048;SDS011;513;51.444;7.196;2023-08-17T05:28:55;53.50;;;32.33;;
1048;SDS011;513;51.444;7.196;2023-08-17T05:31:21;48.70;;;32.03;;
1048;SDS011;513;51.444;7.196;2023-08-17T05:33:48;48.53;;;31.53;;
1048;SDS011;513;51.444;7.196;2023-08-17T05:36:14;50.33;;;32.33;;
1048;SDS011;513;51.444;7.196;2023-08-17T05:38:42;50.05;;;32.33;;
1048;SDS011;513;51.444;7.196;2023-08-17T05:41:09;49.78;;;33.08;;
1048;SDS011;513;51.444;7.196;2023-08-17T05:43:36;49.08;;;31.85;;
1048;SDS011;513;51.444;7.196;2023-08-17T05:46:02;53.97;;;33.85;;
1048;SDS011;513;51.444;7.196;2023-08-17T05:48:29;56.50;;;35.50;;
1048;SDS011;513;51.444;7.196;2023-08-17T05:50:56;55.20;;;33.85;;
1048;SDS011;513;51.444;7.196;2023-08-17T05:53:22;59.97;;;35.97;;
1048;SDS011;513;51.444;7.196;2023-08-17T05:55:50;60.10;;;35.17;;
1048;SDS011;513;51.444;7.196;2023-08-17T05:58:17;53.78;;;34.17;;
1048;SDS011;513;51.444;7.196;2023-08-17T06:00:44;53.08;;;33.53;;
1048;SDS011;513;51.444;7.196;2023-08-17T06:03:10;48.45;;;31.95;;
1048;SDS011;513;51.444;7.196;2023-08-17T06:05:37;46.78;;;30.55;;
1048;SDS011;513;51.444;7.196;2023-08-17T06:08:05;50.50;;;32.65;;
1048;SDS011;513;51.444;7.196;2023-08-17T06:10:32;56.08;;;35.83;;
1048;SDS011;513;51.444;7.196;2023-08-17T06:13:00;54.93;;;36.73;;
1048;SDS011;513;51.444;7.196;2023-08-17T06:15:26;59.10;;;35.63;;
1048;SDS011;513;51.444;7.196;2023-08-17T06:17:53;64.35;;;37.47;;
1048;SDS011;513;51.444;7.196;2023-08-17T06:20:19;62.55;;;37.08;;
1048;SDS011;513;51.444;7.196;2023-08-17T06:22:47;58.63;;;36.53;;
1048;SDS011;513;51.444;7.196;2023-08-17T06:25:14;59.13;;;34.97;;
1048;SDS011;513;51.444;7.196;2023-08-17T06:27:41;60.90;;;35.88;;
1048;SDS011;513;51.444;7.196;2023-08-17T06:30:10;66.20;;;37.92;;
1048;SDS011;513;51.444;7.196;2023-08-17T06:32:37;68.93;;;38.33;;
1048;SDS011;513;51.444;7.196;2023-08-17T06:35:04;62.15;;;36.53;;
1048;SDS011;513;51.444;7.196;2023-08-17T06:37:32;58.78;;;34.78;;
1048;SDS011;513;51.444;7.196;2023-08-17T06:39:59;66.25;;;36.97;;
1048;SDS011;513;51.444;7.196;2023-08-17T06:42:26;55.60;;;32.85;;
1048;SDS011;513;51.444;7.196;2023-08-17T06:44:52;60.40;;;36.13;;
1048;SDS011;513;51.444;7.196;2023-08-17T06:47:20;59.95;;;35.92;;
1048;SDS011;513;51.444;7.196;2023-08-17T06:49:47;62.28;;;37.17;;
1048;SDS011;513;51.444;7.196;2023-08-17T06:52:14;62.85;;;37.17;;
1048;SDS011;513;51.444;7.196;2023-08-17T06:54:40;52.17;;;32.83;;
1048;SDS011;513;51.444;7.196;2023-08-17T06:57:07;62.30;;;35.97;;
1048;SDS011;513;51.444;7.196;2023-08-17T06:59:33;61.20;;;35.70;;
1048;SDS011;513;51.444;7.196;2023-08-17T07:02:00;63.13;;;37.63;;
1048;SDS011;513;51.444;7.196;2023-08-17T07:04:28;57.55;;;35.70;;
1048;SDS011;513;51.444;7.196;2023-08-17T07:06:55;74.25;;;41.05;;
1048;SDS011;513;51.444;7.196;2023-08-17T07:09:22;69.13;;;38.88;;
1048;SDS011;513;51.444;7.196;2023-08-17T07:11:49;66.93;;;38.25;;
1048;SDS011;513;51.444;7.196;2023-08-17T07:14:16;70.72;;;39.80;;
1048;SDS011;513;51.444;7.196;2023-08-17T07:16:42;69.93;;;40.00;;
1048;SDS011;513;51.444;7.196;2023-08-17T07:19:09;75.72;;;41.75;;
1048;SDS011;513;51.444;7.196;2023-08-17T07:21:38;74.00;;;42.33;;
1048;SDS011;513;51.444;7.196;2023-08-17T07:24:11;72.82;;;40.70;;
1048;SDS011;513;51.444;7.196;2023-08-17T07:26:38;73.72;;;39.72;;
1048;SDS011;513;51.444;7.196;2023-08-17T07:29:05;81.80;;;43.00;;
1048;SDS011;513;51.444;7.196;2023-08-17T07:31:32;81.60;;;42.97;;
1048;SDS011;513;51.444;7.196;2023-08-17T07:34:02;76.07;;;43.22;;
1048;SDS011;513;51.444;7.196;2023-08-17T07:36:29;83.13;;;44.38;;
1048;SDS011;513;51.444;7.196;2023-08-17T07:38:57;78.88;;;43.65;;
1048;SDS011;513;51.444;7.196;2023-08-17T07:41:24;82.72;;;46.15;;
1048;SDS011;513;51.444;7.196;2023-08-17T07:43:51;79.85;;;43.65;;
1048;SDS011;513;51.444;7.196;2023-08-17T07:46:18;79.20;;;46.00;;
1048;SDS011;513;51.444;7.196;2023-08-17T07:48:44;67.03;;;41.70;;
1048;SDS011;513;51.444;7.196;2023-08-17T07:51:11;71.77;;;43.63;;
1048;SDS011;513;51.444;7.196;2023-08-17T07:53:38;70.40;;;43.25;;
1048;SDS011;513;51.444;7.196;2023-08-17T07:56:06;61.33;;;39.85;;
1048;SDS011;513;51.444;7.196;2023-08-17T07:58:33;65.80;;;42.20;;
1048;SDS011;513;51.444;7.196;2023-08-17T08:01:00;67.57;;;42.53;;
1048;SDS011;513;51.444;7.196;2023-08-17T08:03:26;59.58;;;39.25;;
1048;SDS011;513;51.444;7.196;2023-08-17T08:05:53;51.80;;;35.22;;
1048;SDS011;513;51.444;7.196;2023-08-17T08:08:20;46.53;;;31.70;;
1048;SDS011;513;51.444;7.196;2023-08-17T08:10:46;42.40;;;29.97;;
1048;SDS011;513;51.444;7.196;2023-08-17T08:13:14;37.83;;;29.50;;
1048;SDS011;513;51.444;7.196;2023-08-17T08:15:41;49.50;;;33.40;;
1048;SDS011;513;51.444;7.196;2023-08-17T08:18:08;54.50;;;37.13;;
1048;SDS011;513;51.444;7.196;2023-08-17T08:20:34;52.17;;;37.40;;
1048;SDS011;513;51.444;7.196;2023-08-17T08:23:01;52.95;;;35.70;;
1048;SDS011;513;51.444;7.196;2023-08-17T08:25:28;50.17;;;35.97;;
1048;SDS011;513;51.444;7.196;2023-08-17T08:27:55;55.75;;;39.85;;
1048;SDS011;513;51.444;7.196;2023-08-17T08:30:23;55.40;;;38.43;;
1048;SDS011;513;51.444;7.196;2023-08-17T08:32:49;56.35;;;36.03;;
1048;SDS011;513;51.444;7.196;2023-08-17T08:35:16;45.15;;;32.85;;
1048;SDS011;513;51.444;7.196;2023-08-17T08:37:43;47.53;;;34.22;;
1048;SDS011;513;51.444;7.196;2023-08-17T08:40:10;49.30;;;34.50;;
1048;SDS011;513;51.444;7.196;2023-08-17T08:42:39;48.83;;;34.05;;
1048;SDS011;513;51.444;7.196;2023-08-17T08:45:06;44.78;;;33.40;;
1048;SDS011;513;51.444;7.196;2023-08-17T08:47:34;39.67;;;31.95;;
1048;SDS011;513;51.444;7.196;2023-08-17T08:50:03;42.83;;;32.53;;
1048;SDS011;513;51.444;7.196;2023-08-17T08:52:32;41.22;;;31.08;;
1048;SDS011;513;51.444;7.196;2023-08-17T08:55:03;40.22;;;31.40;;
1048;SDS011;513;51.444;7.196;2023-08-17T08:57:35;37.30;;;28.45;;
1048;SDS011;513;51.444;7.196;2023-08-17T09:00:02;38.75;;;29.25;;
1048;SDS011;513;51.444;7.196;2023-08-17T09:02:30;41.73;;;31.70;;
1048;SDS011;513;51.444;7.196;2023-08-17T09:04:59;41.65;;;31.65;;
1048;SDS011;513;51.444;7.196;2023-08-17T09:07:27;39.65;;;27.90;;
1048;SDS011;513;51.444;7.196;2023-08-17T09:09:55;36.55;;;29.33;;
1048;SDS011;513;51.444;7.196;2023-08-17T09:12:22;45.78;;;32.67;;
1048;SDS011;513;51.444;7.196;2023-08-17T09:14:49;44.15;;;32.70;;
1048;SDS011;513;51.444;7.196;2023-08-17T09:17:22;52.58;;;36.63;;
1048;SDS011;513;51.444;7.196;2023-08-17T09:19:49;50.22;;;36.53;;
1048;SDS011;513;51.444;7.196;2023-08-17T09:22:22;46.78;;;33.97;;
1048;SDS011;513;51.444;7.196;2023-08-17T09:24:49;47.85;;;34.38;;
1048;SDS011;513;51.444;7.196;2023-08-17T09:27:16;46.15;;;34.47;;
1048;SDS011;513;51.444;7.196;2023-08-17T09:29:43;45.20;;;33.22;;
1048;SDS011;513;51.444;7.196;2023-08-17T09:32:11;40.92;;;31.90;;
1048;SDS011;513;51.444;7.196;2023-08-17T09:34:41;40.55;;;32.00;;
1048;SDS011;513;51.444;7.196;2023-08-17T09:37:08;42.20;;;31.50;;
1048;SDS011;513;51.444;7.196;2023-08-17T09:39:36;39.13;;;31.02;;
1048;SDS011;513;51.444;7.196;2023-08-17T09:42:03;44.28;;;33.17;;
1048;SDS011;513;51.444;7.196;2023-08-17T09:44:32;41.55;;;31.75;;
1048;SDS011;513;51.444;7.196;2023-08-17T09:47:00;40.78;;;32.58;;
1048;SDS011;513;51.444;7.196;2023-08-17T09:49:30;40.45;;;31.88;;
1048;SDS011;513;51.444;7.196;2023-08-17T09:51:58;42.55;;;33.35;;
1048;SDS011;513;51.444;7.196;2023-08-17T09:54:25;50.65;;;37.10;;
1048;SDS011;513;51.444;7.196;2023-08-17T09:56:58;45.42;;;35.60;;
1048;SDS011;513;51.444;7.196;2023-08-17T09:59:24;44.90;;;35.13;;
1048;SDS011;513;51.444;7.196;2023-08-17T10:01:51;42.20;;;33.55;;
1048;SDS011;513;51.444;7.196;2023-08-17T10:04:20;45.33;;;35.20;;
1048;SDS011;513;51.444;7.196;2023-08-17T10:06:48;45.20;;;35.45;;
1048;SDS011;513;51.444;7.196;2023-08-17T10:09:18;43.30;;;33.70;;
1048;SDS011;513;51.444;7.196;2023-08-17T10:11:50;42.50;;;32.70;;
1048;SDS011;513;51.444;7.196;2023-08-17T10:14:21;38.25;;;30.30;;
1048;SDS011;513;51.444;7.196;2023-08-17T10:16:53;44.55;;;33.13;;
1048;SDS011;513;51.444;7.196;2023-08-17T10:19:28;38.80;;;31.50;;
1048;SDS011;513;51.444;7.196;2023-08-17T10:22:01;39.10;;;30.83;;
1048;SDS011;513;51.444;7.196;2023-08-17T10:24:34;38.38;;;31.45;;
1048;SDS011;513;51.444;7.196;2023-08-17T10:27:03;36.03;;;29.70;;
1048;SDS011;513;51.444;7.196;2023-08-17T10:29:33;38.22;;;31.30;;
1048;SDS011;513;51.444;7.196;2023-08-17T10:32:02;36.33;;;29.77;;
1048;SDS011;513;51.444;7.196;2023-08-17T10:34:29;37.30;;;28.70;;
1048;SDS011;513;51.444;7.196;2023-08-17T10:36:56;34.28;;;27.98;;
1048;SDS011;513;51.444;7.196;2023-08-17T10:39:25;34.22;;;26.40;;
1048;SDS011;513;51.444;7.196;2023-08-17T10:41:52;32.20;;;27.15;;
1048;SDS011;513;51.444;7.196;2023-08-17T10:47:20;33.60;;;28.10;;
1048;SDS011;513;51.444;7.196;2023-08-17T10:49:48;32.28;;;25.50;;
1048;SDS011;513;51.444;7.196;2023-08-17T10:52:24;31.30;;;26.17;;
1048;SDS011;513;51.444;7.196;2023-08-17T10:54:52;27.17;;;23.97;;
1048;SDS011;513;51.444;7.196;2023-08-17T10:57:29;24.23;;;21.63;;
1048;SDS011;513;51.444;7.196;2023-08-17T11:00:14;26.17;;;20.92;;
1048;SDS011;513;51.444;7.196;2023-08-17T11:02:43;23.17;;;19.75;;
1048;SDS011;513;51.444;7.196;2023-08-17T11:05:10;20.95;;;17.92;;
1048;SDS011;513;51.444;7.196;2023-08-17T11:07:38;20.23;;;17.13;;
1048;SDS011;513;51.444;7.196;2023-08-17T11:10:12;18.80;;;15.25;;
1048;SDS011;513;51.444;7.196;2023-08-17T11:12:53;19.55;;;15.32;;
1048;SDS011;513;51.444;7.196;2023-08-17T11:15:23;17.45;;;14.73;;
1048;SDS011;513;51.444;7.196;2023-08-17T11:17:50;19.50;;;16.93;;
1048;SDS011;513;51.444;7.196;2023-08-17T11:20:17;19.65;;;16.35;;
1048;SDS011;513;51.444;7.196;2023-08-17T11:22:44;16.60;;;14.68;;
1048;SDS011;513;51.444;7.196;2023-08-17T11:25:12;16.30;;;14.60;;
1048;SDS011;513;51.444;7.196;2023-08-17T11:27:39;14.13;;;12.23;;
1048;SDS011;513;51.444;7.196;2023-08-17T11:30:06;13.50;;;12.02;;
1048;SDS011;513;51.444;7.196;2023-08-17T11:32:35;14.93;;;11.45;;
1048;SDS011;513;51.444;7.196;2023-08-17T11:35:02;13.95;;;11.88;;
1048;SDS011;513;51.444;7.196;2023-08-17T11:37:28;15.77;;;12.95;;
1048;SDS011;513;51.444;7.196;2023-08-17T11:39:55;14.75;;;12.43;;
1048;SDS011;513;51.444;7.196;2023-08-17T11:42:22;16.75;;;13.30;;
1048;SDS011;513;51.444;7.196;2023-08-17T11:44:48;15.05;;;12.80;;
1048;SDS011;513;51.444;7.196;2023-08-17T11:47:16;15.52;;;13.93;;
1048;SDS011;513;51.444;7.196;2023-08-17T11:49:45;17.17;;;15.37;;
1048;SDS011;513;51.444;7.196;2023-08-17T11:52:14;16.35;;;14.32;;
1048;SDS011;513;51.444;7.196;2023-08-17T11:54:41;15.25;;;13.65;;
1048;SDS011;513;51.444;7.196;2023-08-17T11:57:07;15.30;;;12.53;;
1048;SDS011;513;51.444;7.196;2023-08-17T11:59:34;16.57;;;12.00;;
1048;SDS011;513;51.444;7.196;2023-08-17T12:02:01;15.15;;;12.90;;
1048;SDS011;513;51.444;7.196;2023-08-17T12:04:28;14.57;;;13.07;;
1048;SDS011;513;51.444;7.196;2023-08-17T12:06:56;14.88;;;12.73;;
1048;SDS011;513;51.444;7.196;2023-08-17T12:09:23;16.92;;;13.85;;
1048;SDS011;513;51.444;7.196;2023-08-17T12:11:53;14.90;;;13.20;;
1048;SDS011;513;51.444;7.196;2023-08-17T12:14:25;16.67;;;12.90;;
1048;SDS011;513;51.444;7.196;2023-08-17T12:16:52;17.80;;;14.13;;
1048;SDS011;513;51.444;7.196;2023-08-17T12:19:19;18.20;;;15.87;;
1048;SDS011;513;51.444;7.196;2023-08-17T12:21:47;21.13;;;16.52;;
1048;SDS011;513;51.444;7.196;2023-08-17T12:24:15;26.40;;;22.25;;
1048;SDS011;513;51.444;7.196;2023-08-17T12:26:44;34.25;;;26.88;;
1048;SDS011;513;51.444;7.196;2023-08-17T12:29:12;35.50;;;27.13;;
1048;SDS011;513;51.444;7.196;2023-08-17T12:31:39;44.90;;;32.65;;
1048;SDS011;513;51.444;7.196;2023-08-17T12:34:05;48.60;;;34.20;;
1048;SDS011;513;51.444;7.196;2023-08-17T12:36:32;42.38;;;31.70;;
1048;SDS011;513;51.444;7.196;2023-08-17T12:39:00;43.88;;;33.20;;
1048;SDS011;513;51.444;7.196;2023-08-17T12:41:28;43.03;;;33.83;;
1048;SDS011;513;51.444;7.196;2023-08-17T12:43:54;42.25;;;33.17;;
1048;SDS011;513;51.444;7.196;2023-08-17T12:46:24;42.10;;;33.78;;
1048;SDS011;513;51.444;7.196;2023-08-17T12:48:50;42.50;;;34.28;;
1048;SDS011;513;51.444;7.196;2023-08-17T12:51:17;40.63;;;32.63;;
1048;SDS011;513;51.444;7.196;2023-08-17T12:53:44;37.87;;;29.33;;
1048;SDS011;513;51.444;7.196;2023-08-17T12:56:10;36.38;;;26.30;;
1048;SDS011;513;51.444;7.196;2023-08-17T12:58:38;32.97;;;26.98;;
1048;SDS011;513;51.444;7.196;2023-08-17T13:01:05;39.65;;;29.58;;
1048;SDS011;513;51.444;7.196;2023-08-17T13:03:32;37.50;;;29.08;;
1048;SDS011;513;51.444;7.196;2023-08-17T13:05:58;32.95;;;28.55;;
1048;SDS011;513;51.444;7.196;2023-08-17T13:08:25;32.65;;;26.35;;
1048;SDS011;513;51.444;7.196;2023-08-17T13:10:51;33.05;;;23.92;;
1048;SDS011;513;51.444;7.196;2023-08-17T13:13:19;29.17;;;24.65;;
1048;SDS011;513;51.444;7.196;2023-08-17T13:15:47;30.83;;;25.77;;
1048;SDS011;513;51.444;7.196;2023-08-17T13:18:14;35.25;;;26.23;;
1048;SDS011;513;51.444;7.196;2023-08-17T13:20:41;30.98;;;25.80;;
1048;SDS011;513;51.444;7.196;2023-08-17T13:23:09;31.65;;;26.63;;
1048;SDS011;513;51.444;7.196;2023-08-17T13:25:36;24.55;;;21.40;;
1048;SDS011;513;51.444;7.196;2023-08-17T13:28:03;27.25;;;22.40;;
1048;SDS011;513;51.444;7.196;2023-08-17T13:30:30;208.02;;;118.97;;
1048;SDS011;513;51.444;7.196;2023-08-17T13:32:58;26.77;;;22.60;;
1048;SDS011;513;51.444;7.196;2023-08-17T13:35:25;23.63;;;21.10;;
1048;SDS011;513;51.444;7.196;2023-08-17T13:37:52;24.35;;;20.63;;
1048;SDS011;513;51.444;7.196;2023-08-17T13:40:19;24.40;;;20.48;;
1048;SDS011;513;51.444;7.196;2023-08-17T13:42:46;24.30;;;20.70;;
1048;SDS011;513;51.444;7.196;2023-08-17T13:45:12;30.20;;;21.73;;
1048;SDS011;513;51.444;7.196;2023-08-17T13:47:39;25.83;;;20.23;;
1048;SDS011;513;51.444;7.196;2023-08-17T13:50:07;22.90;;;19.10;;
1048;SDS011;513;51.444;7.196;2023-08-17T13:52:34;23.87;;;20.07;;
1048;SDS011;513;51.444;7.196;2023-08-17T13:55:01;21.38;;;17.50;;
1048;SDS011;513;51.444;7.196;2023-08-17T13:57:28;20.93;;;18.10;;
1048;SDS011;513;51.444;7.196;2023-08-17T13:59:54;22.88;;;17.17;;
1048;SDS011;513;51.444;7.196;2023-08-17T14:02:21;20.48;;;16.55;;
1048;SDS011;513;51.444;7.196;2023-08-17T14:04:48;22.15;;;17.13;;
1048;SDS011;513;51.444;7.196;2023-08-17T14:07:16;21.67;;;17.92;;
1048;SDS011;513;51.444;7.196;2023-08-17T14:09:42;20.40;;;16.58;;
1048;SDS011;513;51.444;7.196;2023-08-17T14:12:09;20.13;;;16.23;;
1048;SDS011;513;51.444;7.196;2023-08-17T14:14:36;18.10;;;15.68;;
1048;SDS011;513;51.444;7.196;2023-08-17T14:17:02;18.95;;;15.70;;
1048;SDS011;513;51.444;7.196;2023-08-17T14:19:29;16.70;;;14.70;;
1048;SDS011;513;51.444;7.196;2023-08-17T14:21:56;16.58;;;14.60;;
1048;SDS011;513;51.444;7.196;2023-08-17T14:24:27;15.10;;;13.45;;
1048;SDS011;513;51.444;7.196;2023-08-17T14:26:53;14.73;;;12.75;;
1048;SDS011;513;51.444;7.196;2023-08-17T14:29:21;16.65;;;13.43;;
1048;SDS011;513;51.444;7.196;2023-08-17T14:31:48;17.33;;;15.40;;
1048;SDS011;513;51.444;7.196;2023-08-17T14:34:15;26.57;;;21.83;;
1048;SDS011;513;51.444;7.196;2023-08-17T14:36:41;28.30;;;23.20;;
1048;SDS011;513;51.444;7.196;2023-08-17T14:39:08;27.70;;;23.27;;
1048;SDS011;513;51.444;7.196;2023-08-17T14:41:36;30.67;;;23.60;;
1048;SDS011;513;51.444;7.196;2023-08-17T14:44:03;26.55;;;21.73;;
1048;SDS011;513;51.444;7.196;2023-08-17T14:46:30;30.20;;;23.15;;
1048;SDS011;513;51.444;7.196;2023-08-17T14:48:57;26.77;;;22.35;;
1048;SDS011;513;51.444;7.196;2023-08-17T14:51:24;31.87;;;21.70;;
1048;SDS011;513;51.444;7.196;2023-08-17T14:53:51;27.55;;;20.85;;
1048;SDS011;513;51.444;7.196;2023-08-17T14:56:17;24.42;;;20.10;;
1048;SDS011;513;51.444;7.196;2023-08-17T14:58:45;23.98;;;19.70;;
1048;SDS011;513;51.444;7.196;2023-08-17T15:01:12;27.40;;;20.13;;
1048;SDS011;513;51.444;7.196;2023-08-17T15:03:38;23.67;;;18.52;;
1048;SDS011;513;51.444;7.196;2023-08-17T15:06:06;21.75;;;17.73;;